createdAt,value
2019-04-11T00:01:07.940Z,3.00
2019-04-11T00:03:37.611Z,2.90
2019-04-11T00:06:07.516Z,2.80
2019-04-11T00:13:36.415Z,2.80
2019-04-11T00:26:09.419Z,2.70
2019-04-11T00:28:38.164Z,2.50
2019-04-11T00:31:06.943Z,2.50
2019-04-11T00:33:35.723Z,2.50
2019-04-11T00:36:04.463Z,2.40
2019-04-11T00:38:34.125Z,2.40
2019-04-11T00:41:15.470Z,2.30
2019-04-11T00:43:45.744Z,2.10
2019-04-11T00:46:14.911Z,2.00
2019-04-11T00:48:44.003Z,2.00
2019-04-11T00:51:13.886Z,2.10
2019-04-11T00:53:42.709Z,2.10
2019-04-11T00:56:12.422Z,2.10
2019-04-11T00:58:41.540Z,2.10
2019-04-11T01:01:11.391Z,2.10
2019-04-11T01:03:40.322Z,2.10
2019-04-11T01:06:10.030Z,2.10
2019-04-11T01:08:39.893Z,2.10
2019-04-11T01:11:09.897Z,2.10
2019-04-11T01:13:44.722Z,1.90
2019-04-11T01:16:34.852Z,1.90
2019-04-11T01:19:04.637Z,1.90
2019-04-11T01:21:34.933Z,1.90
2019-04-11T01:24:03.848Z,2.00
2019-04-11T01:26:33.024Z,2.00
2019-04-11T01:29:03.027Z,2.10
2019-04-11T01:31:33.703Z,2.00
2019-04-11T01:34:02.553Z,1.90
2019-04-11T01:36:31.351Z,1.80
2019-04-11T01:39:02.986Z,1.80
2019-04-11T01:41:31.787Z,1.90
2019-04-11T01:44:03.760Z,1.90
2019-04-11T01:46:31.951Z,1.80
2019-04-11T01:49:06.699Z,1.80
2019-04-11T01:51:35.907Z,1.70
2019-04-11T01:54:05.737Z,1.70
2019-04-11T01:56:34.503Z,1.60
2019-04-11T01:59:03.311Z,1.60
2019-04-11T02:01:37.071Z,1.60
2019-04-11T02:04:17.244Z,1.60
2019-04-11T02:06:46.009Z,1.60
2019-04-11T02:09:15.889Z,1.60
2019-04-11T02:11:45.690Z,1.60
2019-04-11T02:14:17.014Z,1.50
2019-04-11T02:16:45.500Z,1.50
2019-04-11T02:19:14.693Z,1.50
2019-04-11T02:21:44.183Z,1.30
2019-04-11T02:24:32.675Z,1.30
2019-04-11T02:27:14.777Z,1.30
2019-04-11T02:29:44.783Z,1.30
2019-04-11T02:32:13.860Z,1.30
2019-04-11T02:34:43.889Z,1.20
2019-04-11T02:37:13.469Z,1.20
2019-04-11T02:39:42.837Z,1.20
2019-04-11T02:42:12.243Z,1.10
2019-04-11T02:45:00.679Z,1.10
2019-04-11T02:47:18.039Z,1.10
2019-04-11T02:49:43.643Z,1.00
2019-04-11T02:52:13.438Z,1.00
2019-04-11T02:54:45.147Z,0.90
2019-04-11T02:57:14.773Z,0.90
2019-04-11T02:59:49.136Z,0.90
2019-04-11T03:02:19.490Z,0.90
2019-04-11T03:04:50.916Z,0.90
2019-04-11T03:07:20.611Z,0.80
2019-04-11T03:09:50.971Z,0.80
2019-04-11T03:12:21.421Z,0.80
2019-04-11T03:15:13.003Z,0.80
2019-04-11T03:17:27.048Z,0.80
2019-04-11T03:20:04.289Z,0.80
2019-04-11T03:22:24.408Z,0.80
2019-04-11T03:24:55.341Z,0.90
2019-04-11T03:27:28.119Z,0.90
2019-04-11T03:29:55.887Z,0.90
2019-04-11T03:33:19.725Z,1.00
2019-04-11T03:35:50.904Z,1.10
2019-04-11T03:37:54.032Z,1.00
2019-04-11T03:40:19.187Z,1.00
2019-04-11T03:42:42.968Z,1.30
2019-04-11T03:45:20.716Z,1.40
2019-04-11T03:47:41.302Z,1.40
2019-04-11T03:50:08.180Z,1.30
2019-04-11T03:52:32.816Z,1.20
2019-04-11T03:55:05.823Z,1.20
2019-04-11T03:57:34.365Z,1.20
2019-04-11T04:00:06.244Z,1.20
2019-04-11T04:02:35.180Z,1.20
2019-04-11T04:05:06.625Z,1.20
2019-04-11T04:07:38.148Z,1.20
2019-04-11T04:10:11.527Z,1.20
2019-04-11T04:12:40.269Z,1.30
2019-04-11T04:15:37.837Z,1.10
2019-04-11T04:17:57.438Z,1.10
2019-04-11T04:20:39.310Z,1.10
2019-04-11T04:23:14.049Z,1.10
2019-04-11T04:25:46.722Z,1.10
2019-04-11T04:28:15.643Z,1.10
2019-04-11T04:30:45.370Z,1.20
2019-04-11T04:33:16.870Z,1.30
2019-04-11T04:35:47.313Z,1.20
2019-04-11T04:38:16.131Z,1.30
2019-04-11T04:41:03.750Z,1.30
2019-04-11T04:43:19.329Z,1.40
2019-04-11T04:46:03.477Z,1.50
2019-04-11T04:48:22.355Z,1.50
2019-04-11T04:50:52.309Z,1.50
2019-04-11T04:53:21.911Z,1.50
2019-04-11T04:55:52.217Z,1.70
2019-04-11T04:58:22.391Z,1.70
2019-04-11T05:00:53.841Z,1.80
2019-04-11T05:03:22.356Z,1.80
2019-04-11T05:05:52.976Z,1.90
2019-04-11T05:08:22.852Z,2.00
2019-04-11T05:10:53.295Z,2.00
2019-04-11T05:13:23.688Z,2.10
2019-04-11T05:16:04.453Z,2.00
2019-04-11T05:18:23.718Z,2.00
2019-04-11T05:20:52.809Z,2.10
2019-04-11T05:23:21.784Z,2.10
2019-04-11T05:25:50.894Z,2.10
2019-04-11T05:28:19.755Z,2.10
2019-04-11T05:30:49.088Z,2.20
2019-04-11T05:33:18.030Z,2.40
2019-04-11T05:35:47.930Z,2.40
2019-04-11T05:38:17.305Z,2.40
2019-04-11T05:40:46.205Z,2.50
2019-04-11T05:43:16.198Z,2.60
2019-04-11T05:45:45.780Z,2.50
2019-04-11T05:48:28.591Z,2.40
2019-04-11T05:50:58.318Z,2.50
2019-04-11T05:53:27.912Z,2.50
2019-04-11T05:55:58.024Z,2.70
2019-04-11T05:58:28.204Z,2.80
2019-04-11T06:01:14.453Z,2.80
2019-04-11T06:03:45.328Z,2.90
2019-04-11T06:06:26.808Z,3.00
2019-04-11T06:09:00.714Z,3.10
2019-04-11T06:11:36.957Z,3.20
2019-04-11T06:14:28.107Z,3.20
2019-04-11T06:17:00.843Z,3.20
2019-04-11T06:20:04.464Z,3.40
2019-04-11T06:22:33.957Z,3.70
2019-04-11T06:25:21.303Z,3.70
2019-04-11T06:27:53.695Z,3.80
2019-04-11T06:30:40.670Z,3.60
2019-04-11T06:33:20.790Z,3.60
2019-04-11T06:36:21.300Z,3.80
2019-04-11T06:39:09.287Z,4.10
2019-04-11T06:42:12.945Z,4.20
2019-04-11T06:45:09.295Z,4.20
2019-04-11T06:48:02.622Z,4.50
2019-04-11T06:51:06.016Z,4.80
2019-04-11T06:53:38.305Z,4.80
2019-04-11T06:59:05.274Z,4.70
2019-04-11T07:01:34.269Z,4.80
2019-04-11T07:04:10.038Z,4.90
2019-04-11T07:06:40.551Z,4.90
2019-04-11T07:09:51.255Z,5.20
2019-04-11T07:12:24.541Z,5.20
2019-04-11T07:15:14.429Z,5.40
2019-04-11T07:18:01.163Z,5.30
2019-04-11T07:21:01.319Z,5.20
2019-04-11T07:23:49.120Z,5.30
2019-04-11T07:26:38.884Z,5.50
2019-04-11T07:29:26.056Z,5.70
2019-04-11T07:32:04.948Z,5.60
2019-04-11T07:34:52.665Z,5.60
2019-04-11T07:37:41.179Z,5.70
2019-04-11T07:40:36.992Z,5.80
2019-04-11T07:43:13.870Z,5.90
2019-04-11T07:46:01.042Z,5.90
2019-04-11T07:48:32.350Z,6.30
2019-04-11T07:51:15.332Z,6.20
2019-04-11T07:53:48.101Z,6.30
2019-04-11T07:56:31.174Z,6.20
2019-04-11T07:59:03.680Z,6.10
2019-04-11T08:01:50.646Z,6.30
2019-04-11T08:04:45.170Z,6.30
2019-04-11T08:07:32.735Z,6.40
2019-04-11T08:10:08.193Z,7.00
2019-04-11T08:12:37.380Z,6.60
2019-04-11T08:15:25.872Z,6.70
2019-04-11T08:17:54.702Z,6.30
2019-04-11T08:20:59.632Z,6.40
2019-04-11T08:23:29.771Z,6.40
2019-04-11T08:26:11.603Z,6.60
2019-04-11T08:28:41.291Z,7.00
2019-04-11T08:31:29.145Z,6.70
2019-04-11T08:34:04.914Z,7.10
2019-04-11T08:36:51.792Z,7.40
2019-04-11T08:39:24.838Z,7.60
2019-04-11T08:42:25.487Z,7.30
2019-04-11T08:44:54.279Z,7.70
2019-04-11T08:47:24.456Z,7.80
2019-04-11T08:49:56.975Z,8.10
2019-04-11T08:52:46.754Z,8.60
2019-04-11T08:55:25.167Z,8.90
2019-04-11T08:58:02.434Z,8.00
2019-04-11T09:00:40.752Z,8.10
2019-04-11T09:03:51.794Z,7.40
2019-04-11T09:06:24.886Z,7.50
2019-04-11T09:09:15.973Z,8.40
2019-04-11T09:12:04.486Z,8.60
2019-04-11T09:15:11.005Z,8.00
2019-04-11T09:17:56.572Z,8.00
2019-04-11T09:20:46.028Z,8.30
2019-04-11T09:23:17.669Z,8.50
2019-04-11T09:26:05.473Z,8.40
2019-04-11T09:28:45.975Z,8.70
2019-04-11T09:31:39.806Z,8.70
2019-04-11T09:34:48.200Z,8.00
2019-04-11T09:37:25.366Z,7.30
2019-04-11T09:40:26.307Z,7.70
2019-04-11T09:43:13.524Z,8.00
2019-04-11T09:46:10.610Z,7.70
2019-04-11T09:49:15.004Z,7.50
2019-04-11T09:52:03.032Z,7.30
2019-04-11T09:55:12.941Z,7.50
2019-04-11T09:57:44.173Z,7.20
2019-04-11T10:00:52.850Z,7.40
2019-04-11T10:06:28.115Z,7.40
2019-04-11T10:08:59.759Z,9.90
2019-04-11T10:11:48.503Z,8.50
2019-04-11T10:14:19.674Z,8.50
2019-04-11T10:17:08.704Z,9.00
2019-04-11T10:20:06.797Z,8.50
2019-04-11T10:22:54.422Z,7.70
2019-04-11T10:25:32.207Z,8.00
2019-04-11T10:28:24.970Z,8.80
2019-04-11T10:33:51.038Z,10.90
2019-04-11T10:36:45.333Z,9.20
2019-04-11T10:39:24.928Z,8.90
2019-04-11T10:41:57.921Z,8.10
2019-04-11T10:44:42.217Z,8.20
2019-04-11T10:47:17.595Z,8.20
2019-04-11T10:50:06.979Z,8.00
2019-04-11T10:52:39.438Z,8.30
2019-04-11T10:55:17.830Z,8.90
2019-04-11T10:58:01.056Z,11.20
2019-04-11T11:00:40.245Z,11.90
2019-04-11T11:03:15.447Z,11.40
2019-04-11T11:05:47.688Z,11.10
2019-04-11T11:10:53.519Z,9.50
2019-04-11T11:13:39.521Z,7.80
2019-04-11T11:16:09.092Z,7.90
2019-04-11T11:19:29.523Z,8.00
2019-04-11T11:21:35.206Z,7.40
2019-04-11T11:24:39.096Z,7.20
2019-04-11T11:27:07.255Z,7.20
2019-04-11T11:29:45.329Z,7.30
2019-04-11T11:32:25.305Z,7.50
2019-04-11T11:35:22.440Z,7.80
2019-04-11T11:37:53.590Z,7.50
2019-04-11T11:40:41.658Z,7.30
2019-04-11T11:43:23.138Z,7.50
2019-04-11T11:46:02.016Z,7.30
2019-04-11T11:48:39.762Z,7.40
2019-04-11T11:51:23.270Z,7.60
2019-04-11T11:54:03.321Z,7.10
2019-04-11T11:56:34.045Z,6.90
2019-04-11T11:59:11.263Z,7.10
2019-04-11T12:01:46.561Z,7.00
2019-04-11T12:04:42.601Z,6.90
2019-04-11T12:07:13.174Z,6.80
2019-04-11T12:10:00.684Z,7.10
2019-04-11T12:12:35.880Z,6.90
2019-04-11T12:15:30.397Z,7.00
2019-04-11T12:18:07.544Z,6.90
2019-04-11T12:20:44.960Z,7.10
2019-04-11T12:23:22.751Z,7.10
2019-04-11T12:25:53.522Z,7.00
2019-04-11T12:28:43.776Z,7.00
2019-04-11T12:31:13.384Z,7.10
2019-04-11T12:34:14.324Z,7.10
2019-04-11T12:36:47.989Z,7.10
2019-04-11T12:39:33.226Z,7.00
2019-04-11T12:42:06.382Z,7.00
2019-04-11T12:44:43.651Z,7.20
2019-04-11T12:47:30.164Z,7.20
2019-04-11T12:50:30.507Z,7.20
2019-04-11T12:53:07.543Z,7.10
2019-04-11T12:55:45.858Z,7.50
2019-04-11T12:58:32.532Z,7.50
2019-04-11T13:01:09.902Z,7.40
2019-04-11T13:03:56.821Z,6.90
2019-04-11T13:06:51.222Z,6.80
2019-04-11T13:09:37.427Z,6.70
2019-04-11T13:12:06.752Z,6.70
2019-04-11T13:14:41.315Z,6.60
2019-04-11T13:17:12.746Z,6.40
2019-04-11T13:20:10.039Z,6.50
2019-04-11T13:22:39.207Z,6.60
2019-04-11T13:25:42.564Z,6.50
2019-04-11T13:28:11.418Z,6.50
2019-04-11T13:30:58.027Z,6.50
2019-04-11T13:33:27.924Z,6.20
2019-04-11T13:36:18.731Z,6.30
2019-04-11T13:38:51.573Z,6.30
2019-04-11T13:41:38.299Z,6.30
2019-04-11T13:44:13.065Z,6.40
2019-04-11T13:46:59.474Z,6.40
2019-04-11T13:49:36.437Z,6.40
2019-04-11T13:52:30.726Z,6.30
2019-04-11T13:55:18.599Z,6.50
2019-04-11T13:58:06.475Z,7.00
2019-04-11T14:00:43.211Z,7.30
2019-04-11T14:03:43.543Z,7.10
2019-04-11T14:06:23.947Z,6.80
2019-04-11T14:09:24.630Z,7.10
2019-04-11T14:11:58.225Z,7.30
2019-04-11T14:14:32.946Z,7.10
2019-04-11T14:17:21.833Z,6.90
2019-04-11T14:20:28.610Z,6.90
2019-04-11T14:23:14.823Z,7.10
2019-04-11T14:26:06.691Z,7.10
2019-04-11T14:29:03.770Z,7.00
2019-04-11T14:31:50.944Z,7.00
2019-04-11T14:34:49.098Z,6.80
2019-04-11T14:37:42.739Z,6.70
2019-04-11T14:40:36.169Z,6.90
2019-04-11T14:43:26.093Z,6.70
2019-04-11T14:46:12.775Z,6.80
2019-04-11T14:48:43.751Z,6.60
2019-04-11T14:51:31.056Z,6.50
2019-04-11T14:54:28.083Z,6.60
2019-04-11T14:57:14.978Z,7.10
2019-04-11T14:59:53.754Z,7.00
2019-04-11T15:02:38.349Z,6.80
2019-04-11T15:05:22.638Z,6.60
2019-04-11T15:08:12.457Z,6.40
2019-04-11T15:11:00.189Z,6.40
2019-04-11T15:13:30.176Z,6.40
2019-04-11T15:16:27.010Z,6.30
2019-04-11T15:18:58.981Z,6.30
2019-04-11T15:21:57.979Z,6.20
2019-04-11T15:24:26.902Z,6.30
2019-04-11T15:27:08.765Z,6.40
2019-04-11T15:29:39.842Z,6.40
2019-04-11T15:32:32.773Z,6.50
2019-04-11T15:35:10.879Z,6.60
2019-04-11T15:37:58.161Z,6.50
2019-04-11T15:40:35.109Z,6.40
2019-04-11T15:43:42.091Z,6.20
2019-04-11T15:46:21.854Z,6.20
2019-04-11T15:49:20.013Z,6.20
2019-04-11T15:52:00.391Z,6.30
2019-04-11T15:54:49.113Z,6.50
2019-04-11T15:57:32.360Z,6.20
2019-04-11T16:00:26.841Z,6.20
2019-04-11T16:02:58.147Z,6.20
2019-04-11T16:05:49.084Z,6.00
2019-04-11T16:08:38.816Z,6.00
2019-04-11T16:11:34.994Z,5.90
2019-04-11T16:14:24.214Z,5.80
2019-04-11T16:17:14.031Z,5.80
2019-04-11T16:19:49.194Z,5.90
2019-04-11T16:22:33.721Z,5.90
2019-04-11T16:25:05.663Z,5.90
2019-04-11T16:27:49.239Z,5.80
2019-04-11T16:30:19.746Z,5.80
2019-04-11T16:32:56.195Z,5.80
2019-04-11T16:35:33.008Z,5.90
2019-04-11T16:38:03.316Z,6.00
2019-04-11T16:41:06.654Z,5.80
2019-04-11T16:43:35.488Z,5.80
2019-04-11T16:46:24.860Z,5.80
2019-04-11T16:48:55.671Z,5.80
2019-04-11T16:51:30.714Z,5.70
2019-04-11T16:53:54.267Z,5.70
2019-04-11T16:56:23.095Z,5.60
2019-04-11T16:58:51.882Z,5.70
2019-04-11T17:01:23.146Z,5.70
2019-04-11T17:03:54.905Z,5.50
2019-04-11T17:06:34.553Z,5.50
2019-04-11T17:09:08.599Z,5.40
2019-04-11T17:11:37.415Z,5.30
2019-04-11T17:14:06.467Z,5.30
2019-04-11T17:16:35.276Z,5.40
2019-04-11T17:19:06.828Z,5.40
2019-04-11T17:21:43.033Z,5.40
2019-04-11T17:24:06.422Z,5.50
2019-04-11T17:26:35.186Z,5.40
2019-04-11T17:29:03.906Z,5.40
2019-04-11T17:31:32.931Z,5.40
2019-04-11T17:34:02.521Z,5.40
2019-04-11T17:36:33.573Z,5.30
2019-04-11T17:39:06.751Z,5.20
2019-04-11T17:41:33.870Z,5.60
2019-04-11T17:44:03.093Z,5.40
2019-04-11T17:46:32.011Z,5.20
2019-04-11T17:49:00.744Z,5.10
2019-04-11T17:51:29.505Z,5.20
2019-04-11T17:53:58.245Z,5.20
2019-04-11T17:56:27.002Z,5.20
2019-04-11T17:58:58.145Z,5.30
2019-04-11T18:01:28.926Z,5.30
2019-04-11T18:03:57.626Z,5.30
2019-04-11T18:06:26.375Z,5.30
2019-04-11T18:08:55.144Z,5.60
2019-04-11T18:11:26.199Z,5.70
2019-04-11T18:13:54.524Z,5.30
2019-04-11T18:16:23.709Z,5.10
2019-04-11T18:18:52.452Z,5.00
2019-04-11T18:21:21.488Z,5.00
2019-04-11T18:23:50.665Z,5.00
2019-04-11T18:26:21.460Z,4.90
2019-04-11T18:28:52.018Z,4.90
2019-04-11T18:31:24.740Z,4.90
2019-04-11T18:33:51.572Z,4.90
2019-04-11T18:36:20.696Z,4.90
2019-04-11T18:38:49.612Z,4.80
2019-04-11T18:41:18.751Z,4.90
2019-04-11T18:43:47.882Z,4.90
2019-04-11T18:46:16.878Z,4.80
2019-04-11T18:48:45.732Z,4.80
2019-04-11T18:51:15.093Z,4.80
2019-04-11T18:53:43.961Z,4.70
2019-04-11T18:56:12.884Z,4.70
2019-04-11T18:58:41.710Z,4.70
2019-04-11T19:01:11.118Z,4.70
2019-04-11T19:03:41.463Z,4.70
2019-04-11T19:06:12.893Z,4.70
2019-04-11T19:08:43.151Z,4.70
2019-04-11T19:11:15.397Z,4.70
2019-04-11T19:13:42.140Z,4.70
2019-04-11T19:16:10.902Z,4.70
2019-04-11T19:18:39.676Z,4.70
2019-04-11T19:21:09.007Z,4.60
2019-04-11T19:23:39.095Z,4.70
2019-04-11T19:26:08.574Z,4.60
2019-04-11T19:28:37.719Z,4.60
2019-04-11T19:31:06.553Z,4.60
2019-04-11T19:33:35.661Z,4.60
2019-04-11T19:36:04.426Z,4.60
2019-04-11T19:38:35.610Z,4.50
2019-04-11T19:41:04.396Z,4.50
2019-04-11T19:43:33.317Z,4.60
2019-04-11T19:46:02.139Z,4.50
2019-04-11T19:48:30.887Z,4.50
2019-04-11T19:51:00.032Z,4.50
2019-04-11T19:53:32.802Z,4.50
2019-04-11T19:56:05.416Z,4.50
2019-04-11T19:58:34.734Z,4.50
2019-04-11T20:01:03.739Z,4.40
2019-04-11T20:03:32.568Z,4.40
2019-04-11T20:06:01.839Z,4.40
2019-04-11T20:08:31.127Z,4.40
2019-04-11T20:11:01.280Z,4.30
2019-04-11T20:13:32.229Z,4.40
2019-04-11T20:16:00.990Z,4.40
2019-04-11T20:18:29.997Z,4.40
2019-04-11T20:20:59.185Z,4.40
2019-04-11T20:23:28.379Z,4.40
2019-04-11T20:25:57.578Z,4.40
2019-04-11T20:28:27.318Z,4.40
2019-04-11T20:30:56.190Z,4.40
2019-04-11T20:33:27.176Z,4.40
2019-04-11T20:35:55.567Z,4.40
2019-04-11T20:38:24.482Z,4.40
2019-04-11T20:40:53.686Z,4.30
2019-04-11T20:43:25.599Z,4.30
2019-04-11T20:45:53.733Z,4.30
2019-04-11T20:48:22.644Z,4.30
2019-04-11T20:50:51.859Z,4.20
2019-04-11T20:53:20.759Z,4.30
2019-04-11T20:55:49.564Z,4.30
2019-04-11T20:58:27.050Z,4.30
2019-04-11T21:00:53.193Z,4.30
2019-04-11T21:03:19.894Z,4.30
2019-04-11T21:05:48.964Z,4.20
2019-04-11T21:08:17.807Z,4.20
2019-04-11T21:10:46.602Z,4.10
2019-04-11T21:13:15.487Z,4.10
2019-04-11T21:15:44.308Z,4.10
2019-04-11T21:18:13.281Z,4.10
2019-04-11T21:20:42.189Z,4.20
2019-04-11T21:23:11.034Z,4.20
2019-04-11T21:25:39.839Z,4.10
2019-04-11T21:28:08.605Z,4.10
2019-04-11T21:30:37.844Z,4.10
2019-04-11T21:33:06.752Z,4.10
2019-04-11T21:35:35.703Z,4.20
2019-04-11T21:38:04.729Z,4.10
2019-04-11T21:40:35.961Z,4.10
2019-04-11T21:43:06.190Z,4.20
2019-04-11T21:45:35.965Z,4.10
2019-04-11T21:48:06.592Z,4.10
2019-04-11T21:50:40.319Z,4.10
2019-04-11T21:53:06.306Z,4.00
2019-04-11T21:55:36.159Z,4.10
2019-04-11T21:58:05.004Z,4.10
2019-04-11T22:00:40.714Z,4.10
2019-04-11T22:03:10.276Z,4.10
2019-04-11T22:05:39.961Z,4.00
2019-04-11T22:08:08.892Z,4.00
2019-04-11T22:10:40.394Z,4.10
2019-04-11T22:13:10.118Z,4.00
2019-04-11T22:15:42.499Z,4.00
2019-04-11T22:18:12.990Z,4.00
2019-04-11T22:20:41.271Z,4.10
2019-04-11T22:23:10.024Z,4.00
2019-04-11T22:25:38.965Z,4.00
2019-04-11T22:28:07.812Z,4.00
2019-04-11T22:30:36.721Z,4.00
2019-04-11T22:33:11.820Z,4.00
2019-04-11T22:35:40.618Z,4.00
2019-04-11T22:38:09.421Z,4.00
2019-04-11T22:40:38.212Z,4.00
2019-04-11T22:43:08.125Z,4.00
2019-04-11T22:45:37.818Z,4.00
2019-04-11T22:48:08.810Z,4.10
2019-04-11T22:50:40.775Z,4.00
2019-04-11T22:53:12.840Z,4.00
2019-04-11T22:55:41.328Z,4.00
2019-04-11T22:58:14.025Z,4.00
2019-04-11T23:00:40.540Z,3.90
2019-04-11T23:03:25.508Z,4.00
2019-04-11T23:05:54.524Z,4.00
2019-04-11T23:08:23.400Z,4.00
2019-04-11T23:10:52.970Z,4.00
2019-04-11T23:13:21.931Z,3.90
2019-04-11T23:15:50.746Z,3.90
2019-04-11T23:18:19.716Z,3.90
2019-04-11T23:20:48.718Z,3.80
2019-04-11T23:23:17.641Z,3.80
2019-04-11T23:25:46.557Z,3.80
2019-04-11T23:28:15.865Z,3.80
2019-04-11T23:30:49.488Z,3.80
2019-04-11T23:33:21.056Z,3.90
2019-04-11T23:35:48.799Z,3.90
2019-04-11T23:38:23.678Z,3.80
2019-04-11T23:40:51.225Z,3.70
2019-04-11T23:43:20.722Z,3.70
2019-04-11T23:45:51.129Z,3.70
2019-04-11T23:48:23.770Z,3.70
2019-04-11T23:50:54.863Z,3.70
2019-04-11T23:53:21.789Z,3.70
2019-04-11T23:55:50.759Z,3.70
2019-04-11T23:58:19.642Z,3.70
